sensor_id;sensor_type;location;lat;lon;timestamp;P1;durP1;ratioP1;P2;durP2;ratioP2
67965;SDS011;54749;47.850;9.002;2023-06-10T00:00:44;11.05;;;6.80;;
67965;SDS011;54749;47.850;9.002;2023-06-10T00:03:31;10.40;;;5.88;;
67965;SDS011;54749;47.850;9.002;2023-06-10T00:05:59;11.50;;;6.72;;
67965;SDS011;54749;47.850;9.002;2023-06-10T00:08:27;9.40;;;5.80;;
67965;SDS011;54749;47.850;9.002;2023-06-10T00:10:55;10.67;;;6.40;;
67965;SDS011;54749;47.850;9.002;2023-06-10T00:13:23;10.68;;;6.28;;
67965;SDS011;54749;47.850;9.002;2023-06-10T00:15:50;17.15;;;7.35;;
67965;SDS011;54749;47.850;9.002;2023-06-10T00:18:18;10.82;;;6.40;;
67965;SDS011;54749;47.850;9.002;2023-06-10T00:20:45;10.10;;;6.20;;
67965;SDS011;54749;47.850;9.002;2023-06-10T00:23:12;9.93;;;6.00;;
67965;SDS011;54749;47.850;9.002;2023-06-10T00:25:40;10.80;;;6.07;;
67965;SDS011;54749;47.850;9.002;2023-06-10T00:28:07;13.50;;;6.65;;
67965;SDS011;54749;47.850;9.002;2023-06-10T00:30:34;13.35;;;6.80;;
67965;SDS011;54749;47.850;9.002;2023-06-10T00:33:02;11.85;;;6.28;;
67965;SDS011;54749;47.850;9.002;2023-06-10T00:35:29;9.53;;;5.90;;
67965;SDS011;54749;47.850;9.002;2023-06-10T00:37:56;9.65;;;6.00;;
67965;SDS011;54749;47.850;9.002;2023-06-10T00:40:23;10.15;;;6.28;;
67965;SDS011;54749;47.850;9.002;2023-06-10T00:42:51;10.25;;;6.05;;
67965;SDS011;54749;47.850;9.002;2023-06-10T00:45:20;10.50;;;6.10;;
67965;SDS011;54749;47.850;9.002;2023-06-10T00:47:48;12.20;;;6.43;;
67965;SDS011;54749;47.850;9.002;2023-06-10T00:50:15;11.30;;;7.10;;
67965;SDS011;54749;47.850;9.002;2023-06-10T00:52:44;12.27;;;7.32;;
67965;SDS011;54749;47.850;9.002;2023-06-10T00:55:13;13.52;;;6.80;;
67965;SDS011;54749;47.850;9.002;2023-06-10T00:57:41;11.63;;;6.85;;
67965;SDS011;54749;47.850;9.002;2023-06-10T01:00:11;13.00;;;7.20;;
67965;SDS011;54749;47.850;9.002;2023-06-10T01:02:39;10.45;;;6.80;;
67965;SDS011;54749;47.850;9.002;2023-06-10T01:05:06;14.52;;;7.18;;
67965;SDS011;54749;47.850;9.002;2023-06-10T01:10:28;10.73;;;6.97;;
67965;SDS011;54749;47.850;9.002;2023-06-10T01:13:10;12.13;;;6.67;;
67965;SDS011;54749;47.850;9.002;2023-06-10T01:15:38;11.85;;;6.55;;
67965;SDS011;54749;47.850;9.002;2023-06-10T01:18:06;14.30;;;7.28;;
67965;SDS011;54749;47.850;9.002;2023-06-10T01:20:37;11.38;;;7.50;;
67965;SDS011;54749;47.850;9.002;2023-06-10T01:23:07;13.65;;;7.60;;
67965;SDS011;54749;47.850;9.002;2023-06-10T01:25:37;13.03;;;7.30;;
67965;SDS011;54749;47.850;9.002;2023-06-10T01:28:16;11.82;;;7.30;;
67965;SDS011;54749;47.850;9.002;2023-06-10T01:30:55;11.55;;;7.43;;
67965;SDS011;54749;47.850;9.002;2023-06-10T01:33:29;10.75;;;6.40;;
67965;SDS011;54749;47.850;9.002;2023-06-10T01:35:59;10.35;;;6.32;;
67965;SDS011;54749;47.850;9.002;2023-06-10T01:38:30;11.23;;;7.00;;
67965;SDS011;54749;47.850;9.002;2023-06-10T01:41:03;10.18;;;6.40;;
67965;SDS011;54749;47.850;9.002;2023-06-10T01:43:33;11.60;;;6.90;;
67965;SDS011;54749;47.850;9.002;2023-06-10T01:46:01;12.30;;;7.38;;
67965;SDS011;54749;47.850;9.002;2023-06-10T01:48:29;11.35;;;6.78;;
67965;SDS011;54749;47.850;9.002;2023-06-10T01:50:56;11.07;;;6.70;;
67965;SDS011;54749;47.850;9.002;2023-06-10T01:53:23;10.82;;;6.70;;
67965;SDS011;54749;47.850;9.002;2023-06-10T01:55:52;9.05;;;6.05;;
67965;SDS011;54749;47.850;9.002;2023-06-10T01:58:20;13.50;;;7.38;;
67965;SDS011;54749;47.850;9.002;2023-06-10T02:00:47;12.27;;;7.68;;
67965;SDS011;54749;47.850;9.002;2023-06-10T02:03:14;14.53;;;7.23;;
67965;SDS011;54749;47.850;9.002;2023-06-10T02:05:41;10.65;;;6.72;;
67965;SDS011;54749;47.850;9.002;2023-06-10T02:08:09;11.52;;;7.10;;
67965;SDS011;54749;47.850;9.002;2023-06-10T02:10:36;12.35;;;6.70;;
67965;SDS011;54749;47.850;9.002;2023-06-10T02:13:03;11.27;;;7.05;;
67965;SDS011;54749;47.850;9.002;2023-06-10T02:15:30;11.30;;;6.87;;
67965;SDS011;54749;47.850;9.002;2023-06-10T02:17:58;10.02;;;6.50;;
67965;SDS011;54749;47.850;9.002;2023-06-10T02:20:26;11.48;;;6.88;;
67965;SDS011;54749;47.850;9.002;2023-06-10T02:22:54;11.00;;;6.72;;
67965;SDS011;54749;47.850;9.002;2023-06-10T02:25:21;11.15;;;6.68;;
67965;SDS011;54749;47.850;9.002;2023-06-10T02:27:49;11.37;;;6.60;;
67965;SDS011;54749;47.850;9.002;2023-06-10T02:30:17;10.90;;;6.80;;
67965;SDS011;54749;47.850;9.002;2023-06-10T02:32:44;10.90;;;6.60;;
67965;SDS011;54749;47.850;9.002;2023-06-10T02:35:17;10.52;;;6.28;;
67965;SDS011;54749;47.850;9.002;2023-06-10T02:37:44;10.07;;;6.13;;
67965;SDS011;54749;47.850;9.002;2023-06-10T02:40:11;11.50;;;6.87;;
67965;SDS011;54749;47.850;9.002;2023-06-10T02:42:39;10.85;;;6.03;;
67965;SDS011;54749;47.850;9.002;2023-06-10T02:45:07;11.13;;;6.05;;
67965;SDS011;54749;47.850;9.002;2023-06-10T02:47:39;9.38;;;6.18;;
67965;SDS011;54749;47.850;9.002;2023-06-10T02:50:08;10.88;;;6.40;;
67965;SDS011;54749;47.850;9.002;2023-06-10T02:52:44;11.93;;;7.10;;
67965;SDS011;54749;47.850;9.002;2023-06-10T02:55:11;12.60;;;7.63;;
67965;SDS011;54749;47.850;9.002;2023-06-10T02:57:42;13.88;;;7.63;;
67965;SDS011;54749;47.850;9.002;2023-06-10T03:00:09;12.05;;;7.35;;
67965;SDS011;54749;47.850;9.002;2023-06-10T03:02:39;11.52;;;7.22;;
67965;SDS011;54749;47.850;9.002;2023-06-10T03:05:09;13.03;;;6.77;;
67965;SDS011;54749;47.850;9.002;2023-06-10T03:07:41;11.98;;;7.25;;
67965;SDS011;54749;47.850;9.002;2023-06-10T03:10:08;10.52;;;6.28;;
67965;SDS011;54749;47.850;9.002;2023-06-10T03:12:38;11.98;;;6.90;;
67965;SDS011;54749;47.850;9.002;2023-06-10T03:15:06;10.50;;;5.82;;
67965;SDS011;54749;47.850;9.002;2023-06-10T03:17:34;11.07;;;6.43;;
67965;SDS011;54749;47.850;9.002;2023-06-10T03:20:02;14.43;;;7.47;;
67965;SDS011;54749;47.850;9.002;2023-06-10T03:22:33;12.95;;;7.78;;
67965;SDS011;54749;47.850;9.002;2023-06-10T03:25:05;12.07;;;6.90;;
67965;SDS011;54749;47.850;9.002;2023-06-10T03:27:34;13.10;;;8.02;;
67965;SDS011;54749;47.850;9.002;2023-06-10T03:30:06;11.67;;;6.90;;
67965;SDS011;54749;47.850;9.002;2023-06-10T03:32:34;11.50;;;6.50;;
67965;SDS011;54749;47.850;9.002;2023-06-10T03:35:04;10.68;;;6.65;;
67965;SDS011;54749;47.850;9.002;2023-06-10T03:37:33;12.43;;;6.97;;
67965;SDS011;54749;47.850;9.002;2023-06-10T03:40:01;10.65;;;6.68;;
67965;SDS011;54749;47.850;9.002;2023-06-10T03:42:31;11.60;;;6.77;;
67965;SDS011;54749;47.850;9.002;2023-06-10T03:44:58;11.65;;;6.63;;
67965;SDS011;54749;47.850;9.002;2023-06-10T03:47:33;10.43;;;6.90;;
67965;SDS011;54749;47.850;9.002;2023-06-10T03:50:03;10.73;;;6.97;;
67965;SDS011;54749;47.850;9.002;2023-06-10T03:52:32;10.38;;;6.18;;
67965;SDS011;54749;47.850;9.002;2023-06-10T03:54:59;10.07;;;5.93;;
67965;SDS011;54749;47.850;9.002;2023-06-10T03:57:27;13.55;;;6.82;;
67965;SDS011;54749;47.850;9.002;2023-06-10T03:59:54;11.13;;;7.03;;
67965;SDS011;54749;47.850;9.002;2023-06-10T04:02:23;10.55;;;6.38;;
67965;SDS011;54749;47.850;9.002;2023-06-10T04:04:50;13.73;;;7.60;;
67965;SDS011;54749;47.850;9.002;2023-06-10T04:07:19;11.73;;;7.47;;
67965;SDS011;54749;47.850;9.002;2023-06-10T04:09:47;10.30;;;6.75;;
67965;SDS011;54749;47.850;9.002;2023-06-10T04:12:14;11.73;;;6.95;;
67965;SDS011;54749;47.850;9.002;2023-06-10T04:14:41;10.77;;;6.82;;
67965;SDS011;54749;47.850;9.002;2023-06-10T04:17:11;11.65;;;6.68;;
67965;SDS011;54749;47.850;9.002;2023-06-10T04:19:38;11.10;;;6.20;;
67965;SDS011;54749;47.850;9.002;2023-06-10T04:22:06;10.07;;;5.78;;
67965;SDS011;54749;47.850;9.002;2023-06-10T04:24:34;10.88;;;6.20;;
67965;SDS011;54749;47.850;9.002;2023-06-10T04:27:03;9.50;;;5.85;;
67965;SDS011;54749;47.850;9.002;2023-06-10T04:29:30;9.18;;;5.65;;
67965;SDS011;54749;47.850;9.002;2023-06-10T04:31:57;9.63;;;6.23;;
67965;SDS011;54749;47.850;9.002;2023-06-10T04:34:25;11.80;;;6.00;;
67965;SDS011;54749;47.850;9.002;2023-06-10T04:36:53;10.95;;;6.35;;
67965;SDS011;54749;47.850;9.002;2023-06-10T04:39:20;10.07;;;6.45;;
67965;SDS011;54749;47.850;9.002;2023-06-10T04:41:48;9.25;;;5.63;;
67965;SDS011;54749;47.850;9.002;2023-06-10T04:44:15;8.20;;;5.20;;
67965;SDS011;54749;47.850;9.002;2023-06-10T04:46:43;11.40;;;6.20;;
67965;SDS011;54749;47.850;9.002;2023-06-10T04:49:10;10.63;;;5.88;;
67965;SDS011;54749;47.850;9.002;2023-06-10T04:51:38;8.20;;;5.25;;
67965;SDS011;54749;47.850;9.002;2023-06-10T04:54:05;8.60;;;5.70;;
67965;SDS011;54749;47.850;9.002;2023-06-10T04:56:33;8.70;;;5.50;;
67965;SDS011;54749;47.850;9.002;2023-06-10T04:59:00;11.10;;;6.53;;
67965;SDS011;54749;47.850;9.002;2023-06-10T05:01:28;10.60;;;6.43;;
67965;SDS011;54749;47.850;9.002;2023-06-10T05:03:55;9.23;;;5.72;;
67965;SDS011;54749;47.850;9.002;2023-06-10T05:06:22;10.40;;;5.40;;
67965;SDS011;54749;47.850;9.002;2023-06-10T05:08:49;9.93;;;6.07;;
67965;SDS011;54749;47.850;9.002;2023-06-10T05:11:17;11.43;;;6.82;;
67965;SDS011;54749;47.850;9.002;2023-06-10T05:13:44;11.30;;;6.78;;
67965;SDS011;54749;47.850;9.002;2023-06-10T05:16:11;10.15;;;6.22;;
67965;SDS011;54749;47.850;9.002;2023-06-10T05:18:38;10.35;;;6.70;;
67965;SDS011;54749;47.850;9.002;2023-06-10T05:21:06;8.93;;;5.90;;
67965;SDS011;54749;47.850;9.002;2023-06-10T05:23:34;10.68;;;6.63;;
67965;SDS011;54749;47.850;9.002;2023-06-10T05:26:01;9.43;;;6.00;;
67965;SDS011;54749;47.850;9.002;2023-06-10T05:28:29;9.60;;;5.72;;
67965;SDS011;54749;47.850;9.002;2023-06-10T05:30:56;8.40;;;5.72;;
67965;SDS011;54749;47.850;9.002;2023-06-10T05:33:23;8.73;;;5.40;;
67965;SDS011;54749;47.850;9.002;2023-06-10T05:35:51;8.50;;;5.45;;
67965;SDS011;54749;47.850;9.002;2023-06-10T05:38:18;8.25;;;5.57;;
67965;SDS011;54749;47.850;9.002;2023-06-10T05:40:46;8.70;;;5.75;;
67965;SDS011;54749;47.850;9.002;2023-06-10T05:43:13;9.05;;;6.03;;
67965;SDS011;54749;47.850;9.002;2023-06-10T05:45:41;9.60;;;6.20;;
67965;SDS011;54749;47.850;9.002;2023-06-10T05:48:08;8.10;;;5.68;;
67965;SDS011;54749;47.850;9.002;2023-06-10T05:50:35;8.38;;;6.03;;
67965;SDS011;54749;47.850;9.002;2023-06-10T05:53:05;8.70;;;5.80;;
67965;SDS011;54749;47.850;9.002;2023-06-10T05:55:34;9.93;;;6.00;;
67965;SDS011;54749;47.850;9.002;2023-06-10T05:58:01;9.57;;;6.00;;
67965;SDS011;54749;47.850;9.002;2023-06-10T06:00:28;8.73;;;5.82;;
67965;SDS011;54749;47.850;9.002;2023-06-10T06:02:55;8.88;;;6.10;;
67965;SDS011;54749;47.850;9.002;2023-06-10T06:05:24;9.23;;;6.20;;
67965;SDS011;54749;47.850;9.002;2023-06-10T06:07:51;8.82;;;6.05;;
67965;SDS011;54749;47.850;9.002;2023-06-10T06:10:19;8.30;;;5.63;;
67965;SDS011;54749;47.850;9.002;2023-06-10T06:12:46;9.95;;;5.80;;
67965;SDS011;54749;47.850;9.002;2023-06-10T06:15:13;12.15;;;6.25;;
67965;SDS011;54749;47.850;9.002;2023-06-10T06:17:40;8.93;;;5.63;;
67965;SDS011;54749;47.850;9.002;2023-06-10T06:20:08;11.27;;;5.90;;
67965;SDS011;54749;47.850;9.002;2023-06-10T06:22:35;8.70;;;6.30;;
67965;SDS011;54749;47.850;9.002;2023-06-10T06:25:03;8.45;;;5.63;;
67965;SDS011;54749;47.850;9.002;2023-06-10T06:27:30;9.13;;;5.90;;
67965;SDS011;54749;47.850;9.002;2023-06-10T06:29:58;8.68;;;5.93;;
67965;SDS011;54749;47.850;9.002;2023-06-10T06:32:26;8.85;;;6.13;;
67965;SDS011;54749;47.850;9.002;2023-06-10T06:34:54;8.97;;;5.77;;
67965;SDS011;54749;47.850;9.002;2023-06-10T06:37:22;8.32;;;6.28;;
67965;SDS011;54749;47.850;9.002;2023-06-10T06:39:57;9.77;;;5.90;;
67965;SDS011;54749;47.850;9.002;2023-06-10T06:42:28;9.45;;;6.45;;
67965;SDS011;54749;47.850;9.002;2023-06-10T06:45:03;8.23;;;5.78;;
67965;SDS011;54749;47.850;9.002;2023-06-10T06:47:30;9.63;;;6.07;;
67965;SDS011;54749;47.850;9.002;2023-06-10T06:49:58;8.27;;;5.80;;
67965;SDS011;54749;47.850;9.002;2023-06-10T06:52:25;10.38;;;6.40;;
67965;SDS011;54749;47.850;9.002;2023-06-10T06:54:52;12.13;;;6.88;;
67965;SDS011;54749;47.850;9.002;2023-06-10T06:57:19;10.77;;;6.78;;
67965;SDS011;54749;47.850;9.002;2023-06-10T06:59:46;9.20;;;6.90;;
67965;SDS011;54749;47.850;9.002;2023-06-10T07:02:13;8.25;;;5.85;;
67965;SDS011;54749;47.850;9.002;2023-06-10T07:04:41;8.38;;;5.93;;
67965;SDS011;54749;47.850;9.002;2023-06-10T07:07:08;8.18;;;5.50;;
67965;SDS011;54749;47.850;9.002;2023-06-10T07:09:39;8.90;;;5.97;;
67965;SDS011;54749;47.850;9.002;2023-06-10T07:12:06;8.20;;;5.73;;
67965;SDS011;54749;47.850;9.002;2023-06-10T07:14:34;8.45;;;6.30;;
67965;SDS011;54749;47.850;9.002;2023-06-10T07:17:02;7.15;;;5.40;;
67965;SDS011;54749;47.850;9.002;2023-06-10T07:19:29;10.63;;;6.22;;
67965;SDS011;54749;47.850;9.002;2023-06-10T07:21:57;7.57;;;5.55;;
67965;SDS011;54749;47.850;9.002;2023-06-10T07:24:24;7.97;;;5.53;;
67965;SDS011;54749;47.850;9.002;2023-06-10T07:26:51;10.15;;;5.30;;
67965;SDS011;54749;47.850;9.002;2023-06-10T07:29:19;10.75;;;5.78;;
67965;SDS011;54749;47.850;9.002;2023-06-10T07:31:46;10.90;;;5.38;;
67965;SDS011;54749;47.850;9.002;2023-06-10T07:34:13;7.65;;;5.60;;
67965;SDS011;54749;47.850;9.002;2023-06-10T07:36:40;10.60;;;4.90;;
67965;SDS011;54749;47.850;9.002;2023-06-10T07:39:07;9.60;;;6.28;;
67965;SDS011;54749;47.850;9.002;2023-06-10T07:41:35;9.95;;;5.88;;
67965;SDS011;54749;47.850;9.002;2023-06-10T07:44:02;9.55;;;5.72;;
67965;SDS011;54749;47.850;9.002;2023-06-10T07:46:30;8.30;;;6.70;;
67965;SDS011;54749;47.850;9.002;2023-06-10T07:48:57;6.80;;;5.03;;
67965;SDS011;54749;47.850;9.002;2023-06-10T07:51:24;8.50;;;6.13;;
67965;SDS011;54749;47.850;9.002;2023-06-10T07:53:52;7.07;;;5.35;;
67965;SDS011;54749;47.850;9.002;2023-06-10T07:56:19;6.88;;;4.90;;
67965;SDS011;54749;47.850;9.002;2023-06-10T07:58:48;9.27;;;5.70;;
67965;SDS011;54749;47.850;9.002;2023-06-10T08:01:15;7.20;;;4.83;;
67965;SDS011;54749;47.850;9.002;2023-06-10T08:03:43;7.38;;;5.15;;
67965;SDS011;54749;47.850;9.002;2023-06-10T08:06:10;7.30;;;5.60;;
67965;SDS011;54749;47.850;9.002;2023-06-10T08:08:38;6.88;;;4.80;;
67965;SDS011;54749;47.850;9.002;2023-06-10T08:11:13;7.43;;;5.30;;
67965;SDS011;54749;47.850;9.002;2023-06-10T08:13:41;6.63;;;5.03;;
67965;SDS011;54749;47.850;9.002;2023-06-10T08:16:08;6.65;;;4.70;;
67965;SDS011;54749;47.850;9.002;2023-06-10T08:18:37;7.70;;;5.45;;
67965;SDS011;54749;47.850;9.002;2023-06-10T08:21:04;8.10;;;5.93;;
67965;SDS011;54749;47.850;9.002;2023-06-10T08:23:31;8.02;;;5.40;;
67965;SDS011;54749;47.850;9.002;2023-06-10T08:25:58;8.70;;;5.30;;
67965;SDS011;54749;47.850;9.002;2023-06-10T08:28:25;7.18;;;5.43;;
67965;SDS011;54749;47.850;9.002;2023-06-10T08:30:53;7.38;;;5.55;;
67965;SDS011;54749;47.850;9.002;2023-06-10T08:33:23;8.52;;;5.60;;
67965;SDS011;54749;47.850;9.002;2023-06-10T08:35:50;9.25;;;5.47;;
67965;SDS011;54749;47.850;9.002;2023-06-10T08:38:17;7.60;;;5.50;;
67965;SDS011;54749;47.850;9.002;2023-06-10T08:40:44;7.95;;;5.53;;
67965;SDS011;54749;47.850;9.002;2023-06-10T08:43:32;8.32;;;5.55;;
67965;SDS011;54749;47.850;9.002;2023-06-10T08:46:04;7.45;;;5.13;;
67965;SDS011;54749;47.850;9.002;2023-06-10T08:48:37;9.82;;;4.75;;
67965;SDS011;54749;47.850;9.002;2023-06-10T08:51:11;9.40;;;5.27;;
67965;SDS011;54749;47.850;9.002;2023-06-10T08:53:42;9.85;;;5.53;;
67965;SDS011;54749;47.850;9.002;2023-06-10T08:56:17;7.50;;;5.07;;
67965;SDS011;54749;47.850;9.002;2023-06-10T08:58:45;6.22;;;4.80;;
67965;SDS011;54749;47.850;9.002;2023-06-10T09:01:12;9.73;;;4.82;;
67965;SDS011;54749;47.850;9.002;2023-06-10T09:03:40;10.30;;;5.27;;
67965;SDS011;54749;47.850;9.002;2023-06-10T09:06:08;6.95;;;4.90;;
67965;SDS011;54749;47.850;9.002;2023-06-10T09:08:37;7.78;;;5.00;;
67965;SDS011;54749;47.850;9.002;2023-06-10T09:11:05;9.75;;;5.00;;
67965;SDS011;54749;47.850;9.002;2023-06-10T09:13:32;8.93;;;5.47;;
67965;SDS011;54749;47.850;9.002;2023-06-10T09:15:59;9.73;;;5.57;;
67965;SDS011;54749;47.850;9.002;2023-06-10T09:18:29;8.40;;;5.03;;
67965;SDS011;54749;47.850;9.002;2023-06-10T09:20:57;8.50;;;5.38;;
67965;SDS011;54749;47.850;9.002;2023-06-10T09:23:24;6.60;;;4.65;;
67965;SDS011;54749;47.850;9.002;2023-06-10T09:25:56;7.93;;;4.93;;
67965;SDS011;54749;47.850;9.002;2023-06-10T09:28:27;8.73;;;5.93;;
67965;SDS011;54749;47.850;9.002;2023-06-10T09:31:04;6.53;;;4.30;;
67965;SDS011;54749;47.850;9.002;2023-06-10T09:33:33;8.73;;;4.80;;
67965;SDS011;54749;47.850;9.002;2023-06-10T09:36:05;6.68;;;4.72;;
67965;SDS011;54749;47.850;9.002;2023-06-10T09:38:33;7.40;;;5.03;;
67965;SDS011;54749;47.850;9.002;2023-06-10T09:41:02;7.87;;;5.10;;
67965;SDS011;54749;47.850;9.002;2023-06-10T09:43:39;7.20;;;4.50;;
67965;SDS011;54749;47.850;9.002;2023-06-10T09:46:17;6.55;;;4.65;;
67965;SDS011;54749;47.850;9.002;2023-06-10T09:48:46;6.97;;;4.30;;
67965;SDS011;54749;47.850;9.002;2023-06-10T09:51:14;7.93;;;4.80;;
67965;SDS011;54749;47.850;9.002;2023-06-10T09:53:53;6.63;;;4.37;;
67965;SDS011;54749;47.850;9.002;2023-06-10T09:56:20;5.63;;;4.28;;
67965;SDS011;54749;47.850;9.002;2023-06-10T09:58:49;7.93;;;5.18;;
67965;SDS011;54749;47.850;9.002;2023-06-10T10:01:19;7.30;;;4.45;;
67965;SDS011;54749;47.850;9.002;2023-06-10T10:03:49;7.57;;;4.88;;
67965;SDS011;54749;47.850;9.002;2023-06-10T10:06:17;9.20;;;4.67;;
67965;SDS011;54749;47.850;9.002;2023-06-10T10:08:47;7.55;;;5.00;;
67965;SDS011;54749;47.850;9.002;2023-06-10T10:11:19;6.60;;;4.80;;
67965;SDS011;54749;47.850;9.002;2023-06-10T10:13:51;6.53;;;4.63;;
67965;SDS011;54749;47.850;9.002;2023-06-10T10:16:20;6.88;;;5.00;;
67965;SDS011;54749;47.850;9.002;2023-06-10T10:18:51;8.93;;;4.80;;
67965;SDS011;54749;47.850;9.002;2023-06-10T10:21:26;7.55;;;4.55;;
67965;SDS011;54749;47.850;9.002;2023-06-10T10:24:05;6.95;;;4.68;;
67965;SDS011;54749;47.850;9.002;2023-06-10T10:26:37;6.93;;;4.97;;
67965;SDS011;54749;47.850;9.002;2023-06-10T10:31:40;6.50;;;4.07;;
67965;SDS011;54749;47.850;9.002;2023-06-10T10:34:15;6.22;;;4.82;;
67965;SDS011;54749;47.850;9.002;2023-06-10T10:36:45;6.80;;;4.78;;
67965;SDS011;54749;47.850;9.002;2023-06-10T10:39:13;7.13;;;4.30;;
67965;SDS011;54749;47.850;9.002;2023-06-10T10:41:41;7.13;;;4.68;;
67965;SDS011;54749;47.850;9.002;2023-06-10T10:44:09;6.50;;;4.37;;
67965;SDS011;54749;47.850;9.002;2023-06-10T10:46:44;6.05;;;4.50;;
67965;SDS011;54749;47.850;9.002;2023-06-10T10:49:15;7.65;;;4.60;;
67965;SDS011;54749;47.850;9.002;2023-06-10T10:51:57;5.40;;;4.03;;
67965;SDS011;54749;47.850;9.002;2023-06-10T10:54:32;6.07;;;4.45;;
67965;SDS011;54749;47.850;9.002;2023-06-10T10:57:10;6.23;;;4.67;;
67965;SDS011;54749;47.850;9.002;2023-06-10T10:59:57;7.05;;;4.95;;
67965;SDS011;54749;47.850;9.002;2023-06-10T11:02:32;6.68;;;4.80;;
67965;SDS011;54749;47.850;9.002;2023-06-10T11:05:07;6.35;;;4.65;;
67965;SDS011;54749;47.850;9.002;2023-06-10T11:07:36;7.30;;;5.38;;
67965;SDS011;54749;47.850;9.002;2023-06-10T11:10:10;6.23;;;4.53;;
67965;SDS011;54749;47.850;9.002;2023-06-10T11:15:13;7.70;;;5.22;;
67965;SDS011;54749;47.850;9.002;2023-06-10T11:23:34;6.80;;;5.23;;
67965;SDS011;54749;47.850;9.002;2023-06-10T11:26:09;7.57;;;5.32;;
67965;SDS011;54749;47.850;9.002;2023-06-10T11:28:42;7.75;;;5.53;;
67965;SDS011;54749;47.850;9.002;2023-06-10T11:34:01;8.48;;;5.95;;
67965;SDS011;54749;47.850;9.002;2023-06-10T11:36:32;8.23;;;5.93;;
67965;SDS011;54749;47.850;9.002;2023-06-10T11:39:01;7.97;;;5.63;;
67965;SDS011;54749;47.850;9.002;2023-06-10T11:41:30;9.00;;;5.35;;
67965;SDS011;54749;47.850;9.002;2023-06-10T11:44:17;7.97;;;5.40;;
67965;SDS011;54749;47.850;9.002;2023-06-10T11:46:47;10.13;;;5.57;;
67965;SDS011;54749;47.850;9.002;2023-06-10T11:49:15;8.00;;;5.60;;
67965;SDS011;54749;47.850;9.002;2023-06-10T11:51:42;9.75;;;5.82;;
67965;SDS011;54749;47.850;9.002;2023-06-10T11:54:17;7.85;;;5.57;;
67965;SDS011;54749;47.850;9.002;2023-06-10T11:56:45;7.60;;;5.50;;
67965;SDS011;54749;47.850;9.002;2023-06-10T11:59:13;8.02;;;5.28;;
67965;SDS011;54749;47.850;9.002;2023-06-10T12:01:44;6.93;;;4.90;;
67965;SDS011;54749;47.850;9.002;2023-06-10T12:04:13;9.13;;;4.65;;
67965;SDS011;54749;47.850;9.002;2023-06-10T12:06:46;9.02;;;4.40;;
67965;SDS011;54749;47.850;9.002;2023-06-10T12:09:28;7.05;;;4.55;;
67965;SDS011;54749;47.850;9.002;2023-06-10T12:14:49;8.50;;;5.20;;
67965;SDS011;54749;47.850;9.002;2023-06-10T12:17:34;7.85;;;5.43;;
67965;SDS011;54749;47.850;9.002;2023-06-10T12:20:07;9.15;;;5.50;;
67965;SDS011;54749;47.850;9.002;2023-06-10T12:22:38;9.13;;;4.93;;
67965;SDS011;54749;47.850;9.002;2023-06-10T12:25:07;6.68;;;4.50;;
67965;SDS011;54749;47.850;9.002;2023-06-10T12:27:36;7.73;;;4.50;;
67965;SDS011;54749;47.850;9.002;2023-06-10T12:30:05;7.85;;;5.20;;
67965;SDS011;54749;47.850;9.002;2023-06-10T12:32:43;8.02;;;5.20;;
67965;SDS011;54749;47.850;9.002;2023-06-10T12:35:14;7.72;;;4.32;;
67965;SDS011;54749;47.850;9.002;2023-06-10T12:43:01;6.53;;;4.45;;
67965;SDS011;54749;47.850;9.002;2023-06-10T12:45:32;7.97;;;4.60;;
67965;SDS011;54749;47.850;9.002;2023-06-10T12:48:07;7.10;;;4.32;;
67965;SDS011;54749;47.850;9.002;2023-06-10T12:50:40;6.63;;;4.72;;
67965;SDS011;54749;47.850;9.002;2023-06-10T12:53:08;6.67;;;4.10;;
67965;SDS011;54749;47.850;9.002;2023-06-10T12:55:37;6.13;;;3.95;;
67965;SDS011;54749;47.850;9.002;2023-06-10T12:58:04;6.63;;;4.40;;
67965;SDS011;54749;47.850;9.002;2023-06-10T13:00:31;8.25;;;4.30;;
67965;SDS011;54749;47.850;9.002;2023-06-10T13:03:02;9.07;;;4.40;;
67965;SDS011;54749;47.850;9.002;2023-06-10T13:05:33;7.03;;;4.10;;
67965;SDS011;54749;47.850;9.002;2023-06-10T13:08:00;6.10;;;3.80;;
67965;SDS011;54749;47.850;9.002;2023-06-10T13:10:27;6.25;;;4.00;;
67965;SDS011;54749;47.850;9.002;2023-06-10T13:12:54;5.85;;;3.78;;
67965;SDS011;54749;47.850;9.002;2023-06-10T13:15:22;6.57;;;3.55;;
67965;SDS011;54749;47.850;9.002;2023-06-10T13:17:49;5.63;;;3.33;;
67965;SDS011;54749;47.850;9.002;2023-06-10T13:20:18;8.00;;;3.40;;
67965;SDS011;54749;47.850;9.002;2023-06-10T13:22:46;6.63;;;3.83;;
67965;SDS011;54749;47.850;9.002;2023-06-10T13:25:14;6.22;;;3.55;;
67965;SDS011;54749;47.850;9.002;2023-06-10T13:27:42;6.00;;;3.53;;
67965;SDS011;54749;47.850;9.002;2023-06-10T13:30:10;6.97;;;3.70;;
67965;SDS011;54749;47.850;9.002;2023-06-10T13:32:38;5.28;;;3.22;;
67965;SDS011;54749;47.850;9.002;2023-06-10T13:35:06;8.68;;;3.50;;
67965;SDS011;54749;47.850;9.002;2023-06-10T13:37:35;6.10;;;3.38;;
67965;SDS011;54749;47.850;9.002;2023-06-10T13:40:02;5.53;;;3.30;;
67965;SDS011;54749;47.850;9.002;2023-06-10T13:42:30;41.97;;;4.57;;
67965;SDS011;54749;47.850;9.002;2023-06-10T13:44:57;10.00;;;3.35;;
67965;SDS011;54749;47.850;9.002;2023-06-10T13:47:24;5.65;;;3.55;;
67965;SDS011;54749;47.850;9.002;2023-06-10T13:49:53;6.03;;;3.50;;
67965;SDS011;54749;47.850;9.002;2023-06-10T13:52:20;7.32;;;3.47;;
67965;SDS011;54749;47.850;9.002;2023-06-10T13:54:47;5.10;;;3.10;;
67965;SDS011;54749;47.850;9.002;2023-06-10T13:57:14;6.20;;;3.25;;
67965;SDS011;54749;47.850;9.002;2023-06-10T13:59:41;5.45;;;2.92;;
67965;SDS011;54749;47.850;9.002;2023-06-10T14:02:08;5.05;;;3.05;;
67965;SDS011;54749;47.850;9.002;2023-06-10T14:04:36;5.45;;;3.20;;
67965;SDS011;54749;47.850;9.002;2023-06-10T14:07:03;4.87;;;2.90;;
67965;SDS011;54749;47.850;9.002;2023-06-10T14:09:30;5.53;;;3.00;;
67965;SDS011;54749;47.850;9.002;2023-06-10T14:11:57;5.90;;;2.90;;
67965;SDS011;54749;47.850;9.002;2023-06-10T14:14:25;5.07;;;2.88;;
67965;SDS011;54749;47.850;9.002;2023-06-10T14:16:52;5.07;;;2.90;;
67965;SDS011;54749;47.850;9.002;2023-06-10T14:19:20;6.17;;;2.80;;
67965;SDS011;54749;47.850;9.002;2023-06-10T14:21:47;5.68;;;2.95;;
67965;SDS011;54749;47.850;9.002;2023-06-10T14:24:16;4.88;;;2.63;;
67965;SDS011;54749;47.850;9.002;2023-06-10T14:26:43;4.93;;;2.80;;
67965;SDS011;54749;47.850;9.002;2023-06-10T14:29:11;5.72;;;2.85;;
67965;SDS011;54749;47.850;9.002;2023-06-10T14:31:40;6.83;;;2.77;;
67965;SDS011;54749;47.850;9.002;2023-06-10T14:34:08;5.82;;;2.88;;
67965;SDS011;54749;47.850;9.002;2023-06-10T14:36:35;5.57;;;3.10;;
67965;SDS011;54749;47.850;9.002;2023-06-10T14:39:04;6.97;;;2.63;;
67965;SDS011;54749;47.850;9.002;2023-06-10T14:41:31;6.13;;;3.00;;
67965;SDS011;54749;47.850;9.002;2023-06-10T14:43:59;5.23;;;2.67;;
67965;SDS011;54749;47.850;9.002;2023-06-10T14:46:26;5.75;;;2.80;;
67965;SDS011;54749;47.850;9.002;2023-06-10T14:48:53;5.50;;;2.53;;
67965;SDS011;54749;47.850;9.002;2023-06-10T14:51:20;4.53;;;2.60;;
67965;SDS011;54749;47.850;9.002;2023-06-10T14:53:48;4.80;;;2.75;;
67965;SDS011;54749;47.850;9.002;2023-06-10T14:56:15;6.07;;;2.80;;
67965;SDS011;54749;47.850;9.002;2023-06-10T14:58:42;5.30;;;2.83;;
67965;SDS011;54749;47.850;9.002;2023-06-10T15:01:09;7.38;;;2.90;;
67965;SDS011;54749;47.850;9.002;2023-06-10T15:03:36;7.05;;;2.90;;
67965;SDS011;54749;47.850;9.002;2023-06-10T15:06:04;5.25;;;2.90;;
67965;SDS011;54749;47.850;9.002;2023-06-10T15:08:31;5.53;;;3.20;;
67965;SDS011;54749;47.850;9.002;2023-06-10T15:10:58;5.00;;;2.90;;
67965;SDS011;54749;47.850;9.002;2023-06-10T15:13:28;5.47;;;3.08;;
67965;SDS011;54749;47.850;9.002;2023-06-10T15:15:55;5.70;;;2.67;;
67965;SDS011;54749;47.850;9.002;2023-06-10T15:18:23;5.53;;;2.95;;